sensor_id;sensor_type;location;lat;lon;timestamp;P1;durP1;ratioP1;P2;durP2;ratioP2
24859;SDS011;12936;52.006;4.350;2023-01-19T00:00:57;5.13;;;0.60;;
24859;SDS011;12936;52.006;4.350;2023-01-19T00:03:25;1.63;;;0.40;;
24859;SDS011;12936;52.006;4.350;2023-01-19T00:05:53;3.00;;;0.63;;
24859;SDS011;12936;52.006;4.350;2023-01-19T00:08:21;2.10;;;0.37;;
24859;SDS011;12936;52.006;4.350;2023-01-19T00:10:49;6.20;;;0.60;;
24859;SDS011;12936;52.006;4.350;2023-01-19T00:13:17;4.83;;;0.67;;
24859;SDS011;12936;52.006;4.350;2023-01-19T00:15:47;4.87;;;0.50;;
24859;SDS011;12936;52.006;4.350;2023-01-19T00:18:15;5.63;;;0.70;;
24859;SDS011;12936;52.006;4.350;2023-01-19T00:20:43;5.60;;;0.80;;
24859;SDS011;12936;52.006;4.350;2023-01-19T00:23:12;2.53;;;0.40;;
24859;SDS011;12936;52.006;4.350;2023-01-19T00:25:40;3.17;;;0.60;;
24859;SDS011;12936;52.006;4.350;2023-01-19T00:28:09;3.77;;;0.47;;
24859;SDS011;12936;52.006;4.350;2023-01-19T00:30:38;4.00;;;0.50;;
24859;SDS011;12936;52.006;4.350;2023-01-19T00:33:08;9.40;;;0.93;;
24859;SDS011;12936;52.006;4.350;2023-01-19T00:35:39;6.87;;;1.00;;
24859;SDS011;12936;52.006;4.350;2023-01-19T00:38:09;12.27;;;1.07;;
24859;SDS011;12936;52.006;4.350;2023-01-19T00:40:37;7.53;;;1.40;;
24859;SDS011;12936;52.006;4.350;2023-01-19T00:43:06;5.87;;;1.00;;
24859;SDS011;12936;52.006;4.350;2023-01-19T00:45:33;8.17;;;1.07;;
24859;SDS011;12936;52.006;4.350;2023-01-19T00:48:03;8.80;;;0.97;;
24859;SDS011;12936;52.006;4.350;2023-01-19T00:50:33;8.43;;;1.30;;
24859;SDS011;12936;52.006;4.350;2023-01-19T00:53:01;5.93;;;0.97;;
24859;SDS011;12936;52.006;4.350;2023-01-19T00:55:30;4.00;;;0.73;;
24859;SDS011;12936;52.006;4.350;2023-01-19T00:57:58;8.80;;;1.13;;
24859;SDS011;12936;52.006;4.350;2023-01-19T01:00:28;8.03;;;1.13;;
24859;SDS011;12936;52.006;4.350;2023-01-19T01:02:55;9.90;;;1.10;;
24859;SDS011;12936;52.006;4.350;2023-01-19T01:05:24;4.50;;;0.70;;
24859;SDS011;12936;52.006;4.350;2023-01-19T01:07:54;8.07;;;1.40;;
24859;SDS011;12936;52.006;4.350;2023-01-19T01:10:23;9.40;;;1.50;;
24859;SDS011;12936;52.006;4.350;2023-01-19T01:12:52;1.47;;;0.50;;
24859;SDS011;12936;52.006;4.350;2023-01-19T01:15:40;11.90;;;1.00;;
24859;SDS011;12936;52.006;4.350;2023-01-19T01:18:08;6.30;;;0.73;;
24859;SDS011;12936;52.006;4.350;2023-01-19T01:20:36;8.93;;;0.77;;
24859;SDS011;12936;52.006;4.350;2023-01-19T01:23:06;4.87;;;0.50;;
24859;SDS011;12936;52.006;4.350;2023-01-19T01:25:34;3.13;;;0.37;;
24859;SDS011;12936;52.006;4.350;2023-01-19T01:28:03;2.87;;;0.50;;
24859;SDS011;12936;52.006;4.350;2023-01-19T01:30:34;7.40;;;0.83;;
24859;SDS011;12936;52.006;4.350;2023-01-19T01:33:05;6.03;;;1.03;;
24859;SDS011;12936;52.006;4.350;2023-01-19T01:35:33;3.57;;;0.57;;
24859;SDS011;12936;52.006;4.350;2023-01-19T01:38:01;6.00;;;0.77;;
24859;SDS011;12936;52.006;4.350;2023-01-19T01:40:30;6.93;;;0.80;;
24859;SDS011;12936;52.006;4.350;2023-01-19T01:42:58;5.77;;;0.50;;
24859;SDS011;12936;52.006;4.350;2023-01-19T01:45:29;11.53;;;0.93;;
24859;SDS011;12936;52.006;4.350;2023-01-19T01:48:01;4.43;;;0.90;;
24859;SDS011;12936;52.006;4.350;2023-01-19T01:50:33;6.03;;;0.97;;
24859;SDS011;12936;52.006;4.350;2023-01-19T01:53:05;8.23;;;1.20;;
24859;SDS011;12936;52.006;4.350;2023-01-19T01:55:40;8.97;;;1.10;;
24859;SDS011;12936;52.006;4.350;2023-01-19T01:58:13;10.33;;;1.20;;
24859;SDS011;12936;52.006;4.350;2023-01-19T02:00:42;7.30;;;1.17;;
24859;SDS011;12936;52.006;4.350;2023-01-19T02:03:28;6.97;;;0.97;;
24859;SDS011;12936;52.006;4.350;2023-01-19T02:05:59;7.63;;;1.07;;
24859;SDS011;12936;52.006;4.350;2023-01-19T02:08:29;4.47;;;0.77;;
24859;SDS011;12936;52.006;4.350;2023-01-19T02:11:20;6.37;;;1.30;;
24859;SDS011;12936;52.006;4.350;2023-01-19T02:14:06;5.73;;;0.70;;
24859;SDS011;12936;52.006;4.350;2023-01-19T02:16:35;1.97;;;0.50;;
24859;SDS011;12936;52.006;4.350;2023-01-19T02:19:04;9.33;;;1.00;;
24859;SDS011;12936;52.006;4.350;2023-01-19T02:21:34;4.43;;;0.73;;
24859;SDS011;12936;52.006;4.350;2023-01-19T02:24:09;10.77;;;1.00;;
24859;SDS011;12936;52.006;4.350;2023-01-19T02:26:38;2.27;;;0.40;;
24859;SDS011;12936;52.006;4.350;2023-01-19T02:29:09;2.50;;;0.40;;
24859;SDS011;12936;52.006;4.350;2023-01-19T02:31:39;2.90;;;0.40;;
24859;SDS011;12936;52.006;4.350;2023-01-19T02:34:08;1.80;;;0.30;;
24859;SDS011;12936;52.006;4.350;2023-01-19T02:36:38;1.57;;;0.50;;
24859;SDS011;12936;52.006;4.350;2023-01-19T02:39:12;2.80;;;0.50;;
24859;SDS011;12936;52.006;4.350;2023-01-19T02:41:45;2.47;;;0.30;;
24859;SDS011;12936;52.006;4.350;2023-01-19T02:44:17;2.53;;;0.60;;
24859;SDS011;12936;52.006;4.350;2023-01-19T02:46:47;2.20;;;0.30;;
24859;SDS011;12936;52.006;4.350;2023-01-19T02:49:15;7.13;;;0.50;;
24859;SDS011;12936;52.006;4.350;2023-01-19T02:51:43;7.83;;;0.70;;
24859;SDS011;12936;52.006;4.350;2023-01-19T02:54:14;4.60;;;0.83;;
24859;SDS011;12936;52.006;4.350;2023-01-19T03:00:02;3.50;;;1.20;;
24859;SDS011;12936;52.006;4.350;2023-01-19T03:02:38;6.37;;;1.40;;
24859;SDS011;12936;52.006;4.350;2023-01-19T03:08:21;5.93;;;0.90;;
24859;SDS011;12936;52.006;4.350;2023-01-19T03:11:01;8.97;;;1.33;;
24859;SDS011;12936;52.006;4.350;2023-01-19T03:13:32;11.50;;;1.13;;
24859;SDS011;12936;52.006;4.350;2023-01-19T03:16:10;14.33;;;1.43;;
24859;SDS011;12936;52.006;4.350;2023-01-19T03:18:43;9.67;;;1.33;;
24859;SDS011;12936;52.006;4.350;2023-01-19T03:21:15;14.23;;;1.67;;
24859;SDS011;12936;52.006;4.350;2023-01-19T03:23:45;12.40;;;2.00;;
24859;SDS011;12936;52.006;4.350;2023-01-19T03:26:18;16.47;;;2.47;;
24859;SDS011;12936;52.006;4.350;2023-01-19T03:28:51;10.60;;;1.93;;
24859;SDS011;12936;52.006;4.350;2023-01-19T03:31:22;19.07;;;1.83;;
24859;SDS011;12936;52.006;4.350;2023-01-19T03:33:53;15.33;;;2.33;;
24859;SDS011;12936;52.006;4.350;2023-01-19T03:36:24;11.97;;;2.17;;
24859;SDS011;12936;52.006;4.350;2023-01-19T03:38:57;28.77;;;2.17;;
24859;SDS011;12936;52.006;4.350;2023-01-19T03:41:30;16.07;;;2.00;;
24859;SDS011;12936;52.006;4.350;2023-01-19T03:44:00;14.97;;;1.80;;
24859;SDS011;12936;52.006;4.350;2023-01-19T03:46:31;18.93;;;2.13;;
24859;SDS011;12936;52.006;4.350;2023-01-19T03:49:00;15.03;;;2.67;;
24859;SDS011;12936;52.006;4.350;2023-01-19T03:51:28;15.17;;;2.23;;
24859;SDS011;12936;52.006;4.350;2023-01-19T03:53:56;28.97;;;3.10;;
24859;SDS011;12936;52.006;4.350;2023-01-19T03:56:26;19.10;;;2.50;;
24859;SDS011;12936;52.006;4.350;2023-01-19T03:58:55;17.77;;;2.63;;
24859;SDS011;12936;52.006;4.350;2023-01-19T04:01:24;16.63;;;3.30;;
24859;SDS011;12936;52.006;4.350;2023-01-19T04:03:52;15.63;;;3.47;;
24859;SDS011;12936;52.006;4.350;2023-01-19T04:06:20;14.03;;;2.83;;
24859;SDS011;12936;52.006;4.350;2023-01-19T04:08:49;19.30;;;2.53;;
24859;SDS011;12936;52.006;4.350;2023-01-19T04:11:18;16.47;;;2.47;;
24859;SDS011;12936;52.006;4.350;2023-01-19T04:13:46;24.30;;;2.83;;
24859;SDS011;12936;52.006;4.350;2023-01-19T04:16:15;16.20;;;2.30;;
24859;SDS011;12936;52.006;4.350;2023-01-19T04:18:45;15.07;;;1.93;;
24859;SDS011;12936;52.006;4.350;2023-01-19T04:21:14;19.97;;;1.93;;
24859;SDS011;12936;52.006;4.350;2023-01-19T04:23:43;18.13;;;2.20;;
24859;SDS011;12936;52.006;4.350;2023-01-19T04:26:11;14.43;;;2.53;;
24859;SDS011;12936;52.006;4.350;2023-01-19T04:28:39;15.43;;;1.90;;
24859;SDS011;12936;52.006;4.350;2023-01-19T04:31:07;18.40;;;2.07;;
24859;SDS011;12936;52.006;4.350;2023-01-19T04:33:37;18.23;;;2.20;;
24859;SDS011;12936;52.006;4.350;2023-01-19T04:36:05;14.80;;;2.00;;
24859;SDS011;12936;52.006;4.350;2023-01-19T04:38:34;15.80;;;2.13;;
24859;SDS011;12936;52.006;4.350;2023-01-19T04:41:02;17.30;;;2.70;;
24859;SDS011;12936;52.006;4.350;2023-01-19T04:43:30;24.63;;;2.03;;
24859;SDS011;12936;52.006;4.350;2023-01-19T04:45:59;21.33;;;2.70;;
24859;SDS011;12936;52.006;4.350;2023-01-19T04:48:27;19.37;;;2.17;;
24859;SDS011;12936;52.006;4.350;2023-01-19T04:50:56;19.40;;;2.23;;
24859;SDS011;12936;52.006;4.350;2023-01-19T04:53:24;23.27;;;1.73;;
24859;SDS011;12936;52.006;4.350;2023-01-19T04:55:52;24.23;;;2.07;;
24859;SDS011;12936;52.006;4.350;2023-01-19T04:58:21;21.27;;;2.67;;
24859;SDS011;12936;52.006;4.350;2023-01-19T05:00:49;20.13;;;2.50;;
24859;SDS011;12936;52.006;4.350;2023-01-19T05:03:18;13.60;;;2.50;;
24859;SDS011;12936;52.006;4.350;2023-01-19T05:05:46;17.30;;;2.17;;
24859;SDS011;12936;52.006;4.350;2023-01-19T05:08:16;15.97;;;1.93;;
24859;SDS011;12936;52.006;4.350;2023-01-19T05:10:44;11.97;;;2.27;;
24859;SDS011;12936;52.006;4.350;2023-01-19T05:13:12;17.93;;;2.50;;
24859;SDS011;12936;52.006;4.350;2023-01-19T05:15:40;11.87;;;2.23;;
24859;SDS011;12936;52.006;4.350;2023-01-19T05:18:08;16.93;;;2.03;;
24859;SDS011;12936;52.006;4.350;2023-01-19T05:20:36;12.47;;;1.97;;
24859;SDS011;12936;52.006;4.350;2023-01-19T05:23:04;17.23;;;2.30;;
24859;SDS011;12936;52.006;4.350;2023-01-19T05:25:34;15.60;;;2.33;;
24859;SDS011;12936;52.006;4.350;2023-01-19T05:28:02;18.43;;;2.30;;
24859;SDS011;12936;52.006;4.350;2023-01-19T05:30:30;11.47;;;1.67;;
24859;SDS011;12936;52.006;4.350;2023-01-19T05:32:58;18.67;;;2.30;;
24859;SDS011;12936;52.006;4.350;2023-01-19T05:35:27;20.23;;;1.90;;
24859;SDS011;12936;52.006;4.350;2023-01-19T05:38:01;18.30;;;2.43;;
24859;SDS011;12936;52.006;4.350;2023-01-19T05:40:30;11.73;;;1.63;;
24859;SDS011;12936;52.006;4.350;2023-01-19T05:43:00;16.83;;;1.93;;
24859;SDS011;12936;52.006;4.350;2023-01-19T05:45:30;10.83;;;2.00;;
24859;SDS011;12936;52.006;4.350;2023-01-19T05:47:58;20.67;;;2.23;;
24859;SDS011;12936;52.006;4.350;2023-01-19T05:50:27;11.23;;;1.80;;
24859;SDS011;12936;52.006;4.350;2023-01-19T05:52:55;10.83;;;1.60;;
24859;SDS011;12936;52.006;4.350;2023-01-19T05:55:24;13.13;;;2.23;;
24859;SDS011;12936;52.006;4.350;2023-01-19T05:57:52;20.77;;;2.20;;
24859;SDS011;12936;52.006;4.350;2023-01-19T06:00:22;13.47;;;2.10;;
24859;SDS011;12936;52.006;4.350;2023-01-19T06:02:51;15.53;;;2.00;;
24859;SDS011;12936;52.006;4.350;2023-01-19T06:05:19;13.30;;;2.53;;
24859;SDS011;12936;52.006;4.350;2023-01-19T06:07:49;16.33;;;2.00;;
24859;SDS011;12936;52.006;4.350;2023-01-19T06:10:17;17.77;;;2.33;;
24859;SDS011;12936;52.006;4.350;2023-01-19T06:12:46;14.40;;;1.77;;
24859;SDS011;12936;52.006;4.350;2023-01-19T06:15:15;9.00;;;1.77;;
24859;SDS011;12936;52.006;4.350;2023-01-19T06:17:44;17.27;;;1.80;;
24859;SDS011;12936;52.006;4.350;2023-01-19T06:20:12;19.87;;;2.33;;
24859;SDS011;12936;52.006;4.350;2023-01-19T06:22:40;11.00;;;1.87;;
24859;SDS011;12936;52.006;4.350;2023-01-19T06:25:09;13.77;;;2.03;;
24859;SDS011;12936;52.006;4.350;2023-01-19T06:27:37;13.20;;;2.47;;
24859;SDS011;12936;52.006;4.350;2023-01-19T06:30:06;9.23;;;1.70;;
24859;SDS011;12936;52.006;4.350;2023-01-19T06:32:35;7.03;;;2.00;;
24859;SDS011;12936;52.006;4.350;2023-01-19T06:35:05;13.23;;;2.20;;
24859;SDS011;12936;52.006;4.350;2023-01-19T06:37:34;23.27;;;2.33;;
24859;SDS011;12936;52.006;4.350;2023-01-19T06:40:02;12.33;;;1.70;;
24859;SDS011;12936;52.006;4.350;2023-01-19T06:42:31;14.37;;;2.07;;
24859;SDS011;12936;52.006;4.350;2023-01-19T06:44:59;20.80;;;2.43;;
24859;SDS011;12936;52.006;4.350;2023-01-19T06:47:27;10.57;;;1.83;;
24859;SDS011;12936;52.006;4.350;2023-01-19T06:49:55;13.97;;;2.27;;
24859;SDS011;12936;52.006;4.350;2023-01-19T06:52:25;14.23;;;1.93;;
24859;SDS011;12936;52.006;4.350;2023-01-19T06:54:53;18.60;;;2.87;;
24859;SDS011;12936;52.006;4.350;2023-01-19T06:57:22;11.57;;;1.90;;
24859;SDS011;12936;52.006;4.350;2023-01-19T06:59:51;14.87;;;2.23;;
24859;SDS011;12936;52.006;4.350;2023-01-19T07:02:19;14.90;;;2.13;;
24859;SDS011;12936;52.006;4.350;2023-01-19T07:04:53;11.63;;;2.03;;
24859;SDS011;12936;52.006;4.350;2023-01-19T07:07:21;10.40;;;2.10;;
24859;SDS011;12936;52.006;4.350;2023-01-19T07:09:51;11.23;;;1.77;;
24859;SDS011;12936;52.006;4.350;2023-01-19T07:12:19;8.13;;;1.40;;
24859;SDS011;12936;52.006;4.350;2023-01-19T07:14:47;13.77;;;2.33;;
24859;SDS011;12936;52.006;4.350;2023-01-19T07:17:15;9.97;;;2.07;;
24859;SDS011;12936;52.006;4.350;2023-01-19T07:19:45;12.80;;;1.90;;
24859;SDS011;12936;52.006;4.350;2023-01-19T07:22:13;15.80;;;1.97;;
24859;SDS011;12936;52.006;4.350;2023-01-19T07:24:41;12.43;;;2.07;;
24859;SDS011;12936;52.006;4.350;2023-01-19T07:27:14;15.33;;;1.73;;
24859;SDS011;12936;52.006;4.350;2023-01-19T07:29:42;10.60;;;1.97;;
24859;SDS011;12936;52.006;4.350;2023-01-19T07:32:10;9.33;;;2.03;;
24859;SDS011;12936;52.006;4.350;2023-01-19T07:34:38;14.47;;;2.20;;
24859;SDS011;12936;52.006;4.350;2023-01-19T07:37:06;18.17;;;2.13;;
24859;SDS011;12936;52.006;4.350;2023-01-19T07:39:34;18.33;;;2.33;;
24859;SDS011;12936;52.006;4.350;2023-01-19T07:42:02;14.90;;;2.43;;
24859;SDS011;12936;52.006;4.350;2023-01-19T07:44:32;8.47;;;1.40;;
24859;SDS011;12936;52.006;4.350;2023-01-19T07:47:00;14.90;;;2.13;;
24859;SDS011;12936;52.006;4.350;2023-01-19T07:49:31;9.70;;;1.80;;
24859;SDS011;12936;52.006;4.350;2023-01-19T07:52:00;11.87;;;2.37;;
24859;SDS011;12936;52.006;4.350;2023-01-19T07:54:28;13.87;;;1.67;;
24859;SDS011;12936;52.006;4.350;2023-01-19T07:56:56;16.03;;;2.13;;
24859;SDS011;12936;52.006;4.350;2023-01-19T07:59:26;9.70;;;1.57;;
24859;SDS011;12936;52.006;4.350;2023-01-19T08:01:56;12.07;;;2.20;;
24859;SDS011;12936;52.006;4.350;2023-01-19T08:04:25;9.33;;;1.40;;
24859;SDS011;12936;52.006;4.350;2023-01-19T08:06:54;12.37;;;2.30;;
24859;SDS011;12936;52.006;4.350;2023-01-19T08:09:22;17.60;;;1.77;;
24859;SDS011;12936;52.006;4.350;2023-01-19T08:11:50;9.23;;;1.53;;
24859;SDS011;12936;52.006;4.350;2023-01-19T08:14:19;9.07;;;1.60;;
24859;SDS011;12936;52.006;4.350;2023-01-19T08:16:47;10.50;;;1.60;;
24859;SDS011;12936;52.006;4.350;2023-01-19T08:19:16;9.60;;;1.80;;
24859;SDS011;12936;52.006;4.350;2023-01-19T08:21:45;14.60;;;2.20;;
24859;SDS011;12936;52.006;4.350;2023-01-19T08:24:16;12.40;;;1.70;;
24859;SDS011;12936;52.006;4.350;2023-01-19T08:26:46;9.00;;;1.77;;
24859;SDS011;12936;52.006;4.350;2023-01-19T08:29:14;11.00;;;2.03;;
24859;SDS011;12936;52.006;4.350;2023-01-19T08:31:42;12.23;;;1.60;;
24859;SDS011;12936;52.006;4.350;2023-01-19T08:34:11;10.50;;;1.40;;
24859;SDS011;12936;52.006;4.350;2023-01-19T08:36:40;12.20;;;1.57;;
24859;SDS011;12936;52.006;4.350;2023-01-19T08:39:08;10.37;;;1.80;;
24859;SDS011;12936;52.006;4.350;2023-01-19T08:41:38;6.97;;;1.67;;
24859;SDS011;12936;52.006;4.350;2023-01-19T08:44:06;13.83;;;1.90;;
24859;SDS011;12936;52.006;4.350;2023-01-19T08:46:34;10.80;;;2.00;;
24859;SDS011;12936;52.006;4.350;2023-01-19T08:49:02;12.57;;;1.80;;
24859;SDS011;12936;52.006;4.350;2023-01-19T08:51:30;5.80;;;1.60;;
24859;SDS011;12936;52.006;4.350;2023-01-19T08:54:00;6.97;;;1.67;;
24859;SDS011;12936;52.006;4.350;2023-01-19T08:56:28;17.07;;;1.63;;
24859;SDS011;12936;52.006;4.350;2023-01-19T08:58:56;4.17;;;1.30;;
24859;SDS011;12936;52.006;4.350;2023-01-19T09:01:35;6.23;;;1.63;;
24859;SDS011;12936;52.006;4.350;2023-01-19T09:04:04;9.60;;;1.60;;
24859;SDS011;12936;52.006;4.350;2023-01-19T09:06:32;10.27;;;1.50;;
24859;SDS011;12936;52.006;4.350;2023-01-19T09:09:04;7.53;;;1.30;;
24859;SDS011;12936;52.006;4.350;2023-01-19T09:11:32;10.90;;;1.37;;
24859;SDS011;12936;52.006;4.350;2023-01-19T09:14:00;7.97;;;1.17;;
24859;SDS011;12936;52.006;4.350;2023-01-19T09:16:31;5.97;;;1.23;;
24859;SDS011;12936;52.006;4.350;2023-01-19T09:18:59;10.27;;;1.40;;
24859;SDS011;12936;52.006;4.350;2023-01-19T09:21:27;10.87;;;1.50;;
24859;SDS011;12936;52.006;4.350;2023-01-19T09:23:55;12.23;;;1.10;;
24859;SDS011;12936;52.006;4.350;2023-01-19T09:26:24;5.97;;;1.40;;
24859;SDS011;12936;52.006;4.350;2023-01-19T09:28:52;9.70;;;1.10;;
24859;SDS011;12936;52.006;4.350;2023-01-19T09:31:20;5.77;;;1.40;;
24859;SDS011;12936;52.006;4.350;2023-01-19T09:33:49;11.53;;;1.07;;
24859;SDS011;12936;52.006;4.350;2023-01-19T09:36:17;7.50;;;0.90;;
24859;SDS011;12936;52.006;4.350;2023-01-19T09:38:45;5.73;;;1.00;;
24859;SDS011;12936;52.006;4.350;2023-01-19T09:41:15;5.67;;;0.80;;
24859;SDS011;12936;52.006;4.350;2023-01-19T09:43:49;4.53;;;1.10;;
24859;SDS011;12936;52.006;4.350;2023-01-19T09:46:21;7.40;;;0.97;;
24859;SDS011;12936;52.006;4.350;2023-01-19T09:48:55;6.00;;;0.93;;
24859;SDS011;12936;52.006;4.350;2023-01-19T09:51:25;3.80;;;0.80;;
24859;SDS011;12936;52.006;4.350;2023-01-19T09:53:56;5.43;;;0.93;;
24859;SDS011;12936;52.006;4.350;2023-01-19T09:56:31;12.27;;;1.03;;
24859;SDS011;12936;52.006;4.350;2023-01-19T09:59:01;4.20;;;1.10;;
24859;SDS011;12936;52.006;4.350;2023-01-19T10:01:44;5.90;;;0.73;;
24859;SDS011;12936;52.006;4.350;2023-01-19T10:04:30;6.70;;;0.83;;
24859;SDS011;12936;52.006;4.350;2023-01-19T10:07:05;3.93;;;0.80;;
24859;SDS011;12936;52.006;4.350;2023-01-19T10:09:47;6.20;;;0.73;;
24859;SDS011;12936;52.006;4.350;2023-01-19T10:12:34;8.77;;;1.57;;
24859;SDS011;12936;52.006;4.350;2023-01-19T10:15:16;2.00;;;0.50;;
24859;SDS011;12936;52.006;4.350;2023-01-19T10:17:56;5.20;;;0.80;;
24859;SDS011;12936;52.006;4.350;2023-01-19T10:20:35;6.47;;;1.07;;
24859;SDS011;12936;52.006;4.350;2023-01-19T10:23:12;10.43;;;1.43;;
24859;SDS011;12936;52.006;4.350;2023-01-19T10:25:59;5.27;;;0.73;;
24859;SDS011;12936;52.006;4.350;2023-01-19T10:28:32;9.60;;;1.20;;
24859;SDS011;12936;52.006;4.350;2023-01-19T10:31:04;3.97;;;0.90;;
24859;SDS011;12936;52.006;4.350;2023-01-19T10:33:35;6.90;;;0.90;;
24859;SDS011;12936;52.006;4.350;2023-01-19T10:36:03;5.83;;;0.80;;
24859;SDS011;12936;52.006;4.350;2023-01-19T10:38:33;6.37;;;0.80;;
24859;SDS011;12936;52.006;4.350;2023-01-19T10:41:06;7.60;;;1.13;;
24859;SDS011;12936;52.006;4.350;2023-01-19T10:43:40;0.97;;;0.60;;
24859;SDS011;12936;52.006;4.350;2023-01-19T10:49:01;4.03;;;0.80;;
24859;SDS011;12936;52.006;4.350;2023-01-19T10:51:29;4.23;;;1.40;;
24859;SDS011;12936;52.006;4.350;2023-01-19T10:53:58;1.00;;;0.50;;
24859;SDS011;12936;52.006;4.350;2023-01-19T10:56:29;7.73;;;1.00;;
24859;SDS011;12936;52.006;4.350;2023-01-19T10:59:00;4.30;;;0.73;;
24859;SDS011;12936;52.006;4.350;2023-01-19T11:01:30;3.17;;;0.67;;
24859;SDS011;12936;52.006;4.350;2023-01-19T11:04:18;3.63;;;0.77;;
24859;SDS011;12936;52.006;4.350;2023-01-19T11:06:48;3.50;;;1.17;;
24859;SDS011;12936;52.006;4.350;2023-01-19T11:09:17;3.43;;;0.90;;
24859;SDS011;12936;52.006;4.350;2023-01-19T11:11:47;5.40;;;0.97;;
24859;SDS011;12936;52.006;4.350;2023-01-19T11:14:17;5.20;;;1.03;;
24859;SDS011;12936;52.006;4.350;2023-01-19T11:16:48;5.40;;;0.80;;
24859;SDS011;12936;52.006;4.350;2023-01-19T11:19:20;4.33;;;0.80;;
24859;SDS011;12936;52.006;4.350;2023-01-19T11:21:52;9.47;;;1.93;;
24859;SDS011;12936;52.006;4.350;2023-01-19T11:24:37;5.67;;;0.90;;
24859;SDS011;12936;52.006;4.350;2023-01-19T11:27:06;2.03;;;0.73;;
24859;SDS011;12936;52.006;4.350;2023-01-19T11:29:34;2.30;;;1.07;;
24859;SDS011;12936;52.006;4.350;2023-01-19T11:32:17;4.43;;;0.90;;
24859;SDS011;12936;52.006;4.350;2023-01-19T11:34:48;3.37;;;1.00;;
24859;SDS011;12936;52.006;4.350;2023-01-19T11:37:24;2.93;;;0.73;;
24859;SDS011;12936;52.006;4.350;2023-01-19T11:40:00;5.43;;;1.30;;
24859;SDS011;12936;52.006;4.350;2023-01-19T11:42:32;8.23;;;1.40;;
24859;SDS011;12936;52.006;4.350;2023-01-19T11:45:03;3.90;;;0.80;;
24859;SDS011;12936;52.006;4.350;2023-01-19T11:47:39;8.33;;;1.03;;
24859;SDS011;12936;52.006;4.350;2023-01-19T11:50:14;4.17;;;1.00;;
24859;SDS011;12936;52.006;4.350;2023-01-19T11:52:50;3.43;;;0.67;;
24859;SDS011;12936;52.006;4.350;2023-01-19T11:55:21;2.57;;;0.70;;
24859;SDS011;12936;52.006;4.350;2023-01-19T11:57:54;2.53;;;0.67;;
24859;SDS011;12936;52.006;4.350;2023-01-19T12:00:24;3.47;;;0.93;;
24859;SDS011;12936;52.006;4.350;2023-01-19T12:02:58;3.30;;;0.73;;
24859;SDS011;12936;52.006;4.350;2023-01-19T12:05:36;2.77;;;0.80;;
24859;SDS011;12936;52.006;4.350;2023-01-19T12:08:10;5.93;;;1.30;;
24859;SDS011;12936;52.006;4.350;2023-01-19T12:10:42;3.37;;;0.83;;
24859;SDS011;12936;52.006;4.350;2023-01-19T12:13:16;6.03;;;1.23;;
24859;SDS011;12936;52.006;4.350;2023-01-19T12:15:47;4.47;;;1.23;;
24859;SDS011;12936;52.006;4.350;2023-01-19T12:18:20;4.50;;;1.30;;
24859;SDS011;12936;52.006;4.350;2023-01-19T12:20:50;5.03;;;1.13;;
24859;SDS011;12936;52.006;4.350;2023-01-19T12:23:23;6.60;;;1.13;;
24859;SDS011;12936;52.006;4.350;2023-01-19T12:26:00;2.10;;;0.70;;
24859;SDS011;12936;52.006;4.350;2023-01-19T12:28:43;5.57;;;1.30;;
24859;SDS011;12936;52.006;4.350;2023-01-19T12:31:13;1.80;;;0.70;;
24859;SDS011;12936;52.006;4.350;2023-01-19T12:33:45;6.03;;;0.93;;
24859;SDS011;12936;52.006;4.350;2023-01-19T12:39:04;5.63;;;0.73;;
24859;SDS011;12936;52.006;4.350;2023-01-19T12:41:39;5.07;;;0.80;;
24859;SDS011;12936;52.006;4.350;2023-01-19T12:44:15;5.50;;;1.00;;
24859;SDS011;12936;52.006;4.350;2023-01-19T12:46:49;4.77;;;0.90;;
24859;SDS011;12936;52.006;4.350;2023-01-19T12:49:26;1.87;;;0.70;;
24859;SDS011;12936;52.006;4.350;2023-01-19T12:52:09;3.83;;;0.80;;
24859;SDS011;12936;52.006;4.350;2023-01-19T12:54:52;3.60;;;0.93;;
24859;SDS011;12936;52.006;4.350;2023-01-19T12:57:24;5.33;;;1.13;;
24859;SDS011;12936;52.006;4.350;2023-01-19T12:59:57;4.20;;;0.73;;
24859;SDS011;12936;52.006;4.350;2023-01-19T13:02:40;2.67;;;0.93;;
24859;SDS011;12936;52.006;4.350;2023-01-19T13:08:19;2.07;;;1.07;;
24859;SDS011;12936;52.006;4.350;2023-01-19T13:10:53;4.73;;;0.90;;
24859;SDS011;12936;52.006;4.350;2023-01-19T13:13:43;4.13;;;0.77;;
24859;SDS011;12936;52.006;4.350;2023-01-19T13:16:49;4.53;;;0.90;;
24859;SDS011;12936;52.006;4.350;2023-01-19T13:19:36;9.87;;;1.20;;
24859;SDS011;12936;52.006;4.350;2023-01-19T13:25:31;4.63;;;0.73;;
24859;SDS011;12936;52.006;4.350;2023-01-19T13:28:06;6.03;;;1.23;;
24859;SDS011;12936;52.006;4.350;2023-01-19T13:30:38;3.70;;;1.17;;
24859;SDS011;12936;52.006;4.350;2023-01-19T13:33:18;2.50;;;0.70;;
24859;SDS011;12936;52.006;4.350;2023-01-19T13:35:52;5.27;;;1.10;;
24859;SDS011;12936;52.006;4.350;2023-01-19T13:38:24;2.97;;;0.90;;
24859;SDS011;12936;52.006;4.350;2023-01-19T13:40:55;2.57;;;0.90;;
24859;SDS011;12936;52.006;4.350;2023-01-19T13:43:27;2.80;;;0.97;;
24859;SDS011;12936;52.006;4.350;2023-01-19T13:45:59;5.40;;;1.10;;
24859;SDS011;12936;52.006;4.350;2023-01-19T13:48:28;4.57;;;1.00;;
24859;SDS011;12936;52.006;4.350;2023-01-19T13:51:02;3.87;;;0.87;;
24859;SDS011;12936;52.006;4.350;2023-01-19T13:53:31;4.50;;;0.80;;
24859;SDS011;12936;52.006;4.350;2023-01-19T13:56:18;4.87;;;0.83;;
24859;SDS011;12936;52.006;4.350;2023-01-19T13:58:59;6.83;;;0.93;;
24859;SDS011;12936;52.006;4.350;2023-01-19T14:01:30;4.97;;;1.03;;
24859;SDS011;12936;52.006;4.350;2023-01-19T14:03:59;4.10;;;0.60;;
24859;SDS011;12936;52.006;4.350;2023-01-19T14:06:30;4.43;;;0.90;;
24859;SDS011;12936;52.006;4.350;2023-01-19T14:09:04;5.10;;;1.30;;
24859;SDS011;12936;52.006;4.350;2023-01-19T14:11:43;3.27;;;1.00;;
24859;SDS011;12936;52.006;4.350;2023-01-19T14:14:22;3.60;;;0.83;;
24859;SDS011;12936;52.006;4.350;2023-01-19T14:16:51;4.43;;;1.00;;
24859;SDS011;12936;52.006;4.350;2023-01-19T14:19:19;2.50;;;0.60;;
24859;SDS011;12936;52.006;4.350;2023-01-19T14:22:03;2.77;;;0.67;;
24859;SDS011;12936;52.006;4.350;2023-01-19T14:24:31;1.67;;;0.63;;
24859;SDS011;12936;52.006;4.350;2023-01-19T14:27:15;1.80;;;0.67;;
24859;SDS011;12936;52.006;4.350;2023-01-19T14:29:50;6.33;;;1.00;;
24859;SDS011;12936;52.006;4.350;2023-01-19T14:32:20;3.27;;;0.90;;
24859;SDS011;12936;52.006;4.350;2023-01-19T14:34:52;2.23;;;0.67;;
24859;SDS011;12936;52.006;4.350;2023-01-19T14:37:44;4.23;;;0.73;;
24859;SDS011;12936;52.006;4.350;2023-01-19T14:40:15;1.90;;;0.80;;
24859;SDS011;12936;52.006;4.350;2023-01-19T14:42:47;2.33;;;0.63;;
24859;SDS011;12936;52.006;4.350;2023-01-19T14:45:20;2.57;;;0.87;;
24859;SDS011;12936;52.006;4.350;2023-01-19T14:47:53;5.20;;;1.10;;
24859;SDS011;12936;52.006;4.350;2023-01-19T14:50:30;7.77;;;1.20;;
24859;SDS011;12936;52.006;4.350;2023-01-19T14:53:01;6.17;;;1.30;;
24859;SDS011;12936;52.006;4.350;2023-01-19T14:55:31;3.33;;;0.90;;
24859;SDS011;12936;52.006;4.350;2023-01-19T14:58:08;6.17;;;1.00;;
24859;SDS011;12936;52.006;4.350;2023-01-19T15:00:37;5.53;;;0.90;;
24859;SDS011;12936;52.006;4.350;2023-01-19T15:03:05;3.13;;;1.10;;
24859;SDS011;12936;52.006;4.350;2023-01-19T15:05:35;2.87;;;1.03;;
24859;SDS011;12936;52.006;4.350;2023-01-19T15:08:03;4.23;;;1.10;;
24859;SDS011;12936;52.006;4.350;2023-01-19T15:10:32;5.20;;;1.17;;
24859;SDS011;12936;52.006;4.350;2023-01-19T15:13:02;3.93;;;1.03;;
24859;SDS011;12936;52.006;4.350;2023-01-19T15:15:32;8.77;;;1.40;;
24859;SDS011;12936;52.006;4.350;2023-01-19T15:18:01;6.17;;;1.20;;
24859;SDS011;12936;52.006;4.350;2023-01-19T15:20:31;1.90;;;0.90;;
24859;SDS011;12936;52.006;4.350;2023-01-19T15:22:59;5.43;;;1.07;;
24859;SDS011;12936;52.006;4.350;2023-01-19T15:25:27;6.23;;;1.23;;